Time;durP1;ratioP1;P1;durP2;ratioP2;P2;SDS_P1;SDS_P2;PMS_P1;PMS_P2;Temp;Humidity;BMP_temperature;BMP_pressure;BME280_temperature;BME280_humidity;BME280_pressure;Samples;Min_cycle;Max_cycle;Signal;HPM_P1;HPM_P2
2023/08/09 00:02:20;;;;;;;0.40;0.40;;;21.50;71.10;;;;;;5027961;28;20026;-76
2023/08/09 00:04:45;;;;;;;0.30;0.30;;;21.40;70.20;;;;;;5024200;28;21573;-77
2023/08/09 00:07:11;;;;;;;0.60;0.60;;;21.50;70.20;;;;;;5024844;28;20030;-76
2023/08/09 00:09:36;;;;;;;0.40;0.40;;;21.50;70.20;;;;;;5005902;28;20538;-76
2023/08/09 00:12:03;;;;;;;0.30;0.30;;;21.50;70.20;;;;;;5051631;28;20041;-76
2023/08/09 00:14:28;;;;;;;0.50;0.50;;;21.50;70.10;;;;;;5022768;28;20400;-76
2023/08/09 00:16:54;;;;;;;0.40;0.30;;;21.50;70.20;;;;;;5010157;28;20187;-76
2023/08/09 00:19:20;;;;;;;0.73;0.35;;;21.50;70.10;;;;;;5008197;28;20499;-77
2023/08/09 00:21:46;;;;;;;0.40;0.40;;;21.50;70.10;;;;;;5024935;28;20049;-76
2023/08/09 00:24:12;;;;;;;0.30;0.30;;;21.40;70.20;;;;;;5026517;28;20269;-77
2023/08/09 00:26:37;;;;;;;0.38;0.38;;;21.40;70.90;;;;;;5024987;28;20117;-76
2023/08/09 00:29:03;;;;;;;0.30;0.30;;;21.40;70.10;;;;;;5024369;28;20056;-77
2023/08/09 00:31:29;;;;;;;0.30;0.30;;;21.40;70.10;;;;;;5025410;28;20527;-76
2023/08/09 00:33:54;;;;;;;0.30;0.30;;;21.50;70.40;;;;;;5024591;28;20037;-76
2023/08/09 00:36:20;;;;;;;0.40;0.40;;;21.40;70.20;;;;;;5026554;28;20407;-77
2023/08/09 00:38:46;;;;;;;0.40;0.40;;;21.40;70.20;;;;;;5027309;28;20060;-77
2023/08/09 00:41:12;;;;;;;0.30;0.30;;;21.40;70.20;;;;;;5024954;28;20052;-77
2023/08/09 00:43:37;;;;;;;0.68;0.45;;;21.40;70.20;;;;;;5004416;28;20144;-76
2023/08/09 00:46:03;;;;;;;0.30;0.30;;;21.40;70.20;;;;;;5025943;28;20095;-76
2023/08/09 00:48:28;;;;;;;0.38;0.38;;;21.40;70.20;;;;;;5023282;28;21886;-77
2023/08/09 00:50:54;;;;;;;0.40;0.40;;;21.40;70.20;;;;;;5019703;28;20046;-77
2023/08/09 00:53:21;;;;;;;0.65;0.43;;;21.40;70.10;;;;;;5026977;28;20029;-77
2023/08/09 00:55:46;;;;;;;1.35;0.50;;;21.40;70.20;;;;;;5026408;28;20091;-77
2023/08/09 00:58:12;;;;;;;0.30;0.20;;;21.40;71.00;;;;;;5027512;28;20053;-77
2023/08/09 01:00:37;;;;;;;0.32;0.32;;;21.40;70.20;;;;;;5025190;28;20438;-76
2023/08/09 01:03:03;;;;;;;0.45;0.40;;;21.40;70.30;;;;;;5025843;28;20033;-76
2023/08/09 01:05:50;;;;;;;0.30;0.30;;;21.40;70.30;;;;;;5027854;28;20041;-76
2023/08/09 01:08:34;;;;;;;0.63;0.63;;;21.40;70.30;;;;;;5025758;28;20041;-76
2023/08/09 01:11:08;;;;;;;0.47;0.40;;;21.40;70.30;;;;;;5006801;28;20030;-76
2023/08/09 01:13:33;;;;;;;;;;;21.40;70.30;;;;;;5006906;28;20037;-76
2023/08/09 01:15:59;;;;;;;0.47;0.47;;;21.40;70.30;;;;;;5022623;28;19921;-76
2023/08/09 01:18:24;;;;;;;1.85;0.50;;;21.40;70.30;;;;;;5007509;28;20037;-77
2023/08/09 01:20:50;;;;;;;0.45;0.45;;;21.40;70.30;;;;;;5024171;28;20132;-76
2023/08/09 01:23:17;;;;;;;0.70;0.40;;;21.40;70.30;;;;;;5025111;28;20040;-77
2023/08/09 01:25:43;;;;;;;0.52;0.40;;;21.40;70.30;;;;;;5007225;28;20565;-77
2023/08/09 01:28:09;;;;;;;0.30;0.30;;;21.50;70.50;;;;;;5023854;28;20049;-77
2023/08/09 01:30:35;;;;;;;2.08;0.40;;;21.40;70.30;;;;;;5007336;28;20510;-76
2023/08/09 01:33:00;;;;;;;0.40;0.40;;;21.40;70.30;;;;;;5025132;28;20128;-76
2023/08/09 01:35:26;;;;;;;0.40;0.40;;;21.40;70.30;;;;;;5024088;28;20126;-76
2023/08/09 01:37:57;;;;;;;0.35;0.32;;;21.40;70.30;;;;;;5024301;28;20041;-76
2023/08/09 01:40:22;;;;;;;0.60;0.60;;;21.40;70.30;;;;;;5008056;28;20466;-76
2023/08/09 01:42:48;;;;;;;0.40;0.40;;;21.40;70.20;;;;;;5008589;28;20030;-76
2023/08/09 01:45:14;;;;;;;1.20;0.30;;;21.40;70.30;;;;;;5024360;28;20087;-76
2023/08/09 01:47:40;;;;;;;0.45;0.40;;;21.40;70.30;;;;;;5006153;28;20029;-76
2023/08/09 01:50:07;;;;;;;0.30;0.30;;;21.40;70.30;;;;;;5023972;28;20054;-77
2023/08/09 01:52:32;;;;;;;0.45;0.45;;;21.40;70.30;;;;;;5049931;28;20041;-76
2023/08/09 01:54:58;;;;;;;1.83;0.55;;;21.40;70.40;;;;;;5024505;28;20029;-76
2023/08/09 01:57:24;;;;;;;0.70;0.40;;;21.40;70.40;;;;;;5024171;28;20041;-77
2023/08/09 01:59:49;;;;;;;0.32;0.32;;;21.40;70.30;;;;;;5025586;28;20041;-76
2023/08/09 02:02:15;;;;;;;0.50;0.30;;;21.40;70.30;;;;;;5023413;28;20089;-76
2023/08/09 02:04:41;;;;;;;0.47;0.47;;;21.40;70.20;;;;;;5024004;28;20041;-77
2023/08/09 02:07:06;;;;;;;1.52;0.45;;;21.40;71.00;;;;;;5025116;28;20065;-76
2023/08/09 02:09:32;;;;;;;0.57;0.40;;;21.40;70.20;;;;;;5016567;28;20050;-76
2023/08/09 02:11:57;;;;;;;0.30;0.30;;;21.40;70.30;;;;;;5025059;28;20041;-76
2023/08/09 02:14:23;;;;;;;0.50;0.50;;;21.40;70.50;;;;;;5024404;28;20088;-76
2023/08/09 02:16:48;;;;;;;0.80;0.40;;;21.40;70.70;;;;;;5023864;28;20037;-76
2023/08/09 02:19:14;;;;;;;0.47;0.47;;;21.40;70.30;;;;;;5024252;28;20033;-76
2023/08/09 02:21:41;;;;;;;0.40;0.40;;;21.40;70.40;;;;;;5009130;28;20030;-76
2023/08/09 02:24:08;;;;;;;0.30;0.30;;;21.40;70.30;;;;;;5027073;28;20045;-76
2023/08/09 02:26:33;;;;;;;0.65;0.43;;;21.40;70.90;;;;;;5025224;28;20037;-76
2023/08/09 02:29:00;;;;;;;0.47;0.47;;;21.40;71.00;;;;;;5024477;28;20064;-76
2023/08/09 02:31:26;;;;;;;0.50;0.50;;;21.40;70.70;;;;;;5027952;28;20119;-76
2023/08/09 02:33:52;;;;;;;0.40;0.38;;;21.40;70.80;;;;;;5022800;28;20080;-77
2023/08/09 02:36:17;;;;;;;0.52;0.40;;;21.40;71.20;;;;;;5025054;28;20574;-76
2023/08/09 02:38:43;;;;;;;0.73;0.60;;;21.40;71.00;;;;;;5018660;28;20455;-76
2023/08/09 02:41:09;;;;;;;1.17;0.50;;;21.40;70.50;;;;;;5024625;28;20036;-76
2023/08/09 02:43:35;;;;;;;0.50;0.50;;;21.40;70.70;;;;;;5025352;28;20038;-76
2023/08/09 02:46:00;;;;;;;0.73;0.60;;;21.40;70.60;;;;;;5003826;28;20055;-77
2023/08/09 02:48:26;;;;;;;0.30;0.30;;;21.40;70.50;;;;;;5023935;28;20044;-77
2023/08/09 02:50:52;;;;;;;0.22;0.22;;;21.40;70.70;;;;;;5023350;28;20511;-77
2023/08/09 02:53:17;;;;;;;0.52;0.40;;;21.40;70.70;;;;;;5034159;28;20041;-76
2023/08/09 02:55:43;;;;;;;0.50;0.50;;;21.40;71.30;;;;;;5024923;28;20041;-76
2023/08/09 02:58:09;;;;;;;2.08;0.57;;;21.40;71.10;;;;;;5007643;28;20577;-76
2023/08/09 03:00:34;;;;;;;0.45;0.45;;;21.40;70.90;;;;;;5023917;28;20408;-76
2023/08/09 03:03:00;;;;;;;0.47;0.40;;;21.40;70.80;;;;;;5025486;28;20499;-76
2023/08/09 03:05:26;;;;;;;0.40;0.40;;;21.40;71.20;;;;;;5026600;28;20120;-76
2023/08/09 03:07:52;;;;;;;0.43;0.43;;;21.40;70.80;;;;;;5022352;28;20041;-76
2023/08/09 03:10:18;;;;;;;0.40;0.40;;;21.40;71.30;;;;;;5007728;28;20081;-76
2023/08/09 03:12:44;;;;;;;0.57;0.57;;;21.40;71.00;;;;;;5021510;28;20060;-77
2023/08/09 03:15:10;;;;;;;0.50;0.50;;;21.40;71.70;;;;;;5025596;28;20053;-76
2023/08/09 03:17:36;;;;;;;0.43;0.43;;;21.40;71.80;;;;;;5023969;28;20117;-76
2023/08/09 03:20:08;;;;;;;0.40;0.40;;;21.40;71.50;;;;;;5023423;28;20479;-76
2023/08/09 03:22:34;;;;;;;0.40;0.40;;;21.40;70.60;;;;;;5021149;28;20076;-76
2023/08/09 03:24:59;;;;;;;0.40;0.40;;;21.40;71.40;;;;;;5024167;28;20081;-77
2023/08/09 03:27:25;;;;;;;0.40;0.40;;;21.40;71.10;;;;;;5026054;28;20037;-77
2023/08/09 03:29:51;;;;;;;0.52;0.40;;;21.40;71.20;;;;;;5028104;28;20045;-76
2023/08/09 03:32:16;;;;;;;0.70;0.50;;;21.40;71.30;;;;;;5028754;28;20128;-76
2023/08/09 03:34:42;;;;;;;0.77;0.35;;;21.40;71.30;;;;;;5026053;28;20492;-76
2023/08/09 03:37:07;;;;;;;0.70;0.50;;;21.40;71.20;;;;;;5026261;28;20050;-77
2023/08/09 03:39:33;;;;;;;0.30;0.30;;;21.40;71.10;;;;;;5026782;28;20133;-77
2023/08/09 03:41:58;;;;;;;0.43;0.40;;;21.40;70.70;;;;;;5027485;28;20119;-77
2023/08/09 03:44:24;;;;;;;0.50;0.32;;;21.40;71.00;;;;;;5026717;28;20084;-77
2023/08/09 03:46:49;;;;;;;2.30;0.60;;;21.40;70.70;;;;;;5026951;28;20075;-77
2023/08/09 03:49:15;;;;;;;0.80;0.50;;;21.40;70.70;;;;;;5024696;28;20053;-77
2023/08/09 03:51:41;;;;;;;0.32;0.30;;;21.40;70.80;;;;;;5025532;28;20034;-77
2023/08/09 03:54:06;;;;;;;0.85;0.55;;;21.40;70.80;;;;;;5026469;28;20061;-77
2023/08/09 03:56:32;;;;;;;0.60;0.40;;;21.40;70.70;;;;;;5027876;28;20045;-77
2023/08/09 03:58:57;;;;;;;0.45;0.45;;;21.30;71.00;;;;;;5025001;28;20041;-77
2023/08/09 04:01:23;;;;;;;0.50;0.50;;;21.40;70.70;;;;;;5026517;28;20079;-77
2023/08/09 04:03:48;;;;;;;0.50;0.50;;;21.30;70.80;;;;;;5024295;28;20052;-77
2023/08/09 04:06:14;;;;;;;1.48;0.85;;;21.30;70.80;;;;;;5026202;28;20511;-77
2023/08/09 04:08:40;;;;;;;1.58;0.40;;;21.30;70.90;;;;;;5026838;28;20110;-76
2023/08/09 04:11:05;;;;;;;0.32;0.32;;;21.30;70.90;;;;;;5024418;28;20046;-77
2023/08/09 04:13:31;;;;;;;0.60;0.40;;;21.30;70.90;;;;;;5025639;28;20054;-77
2023/08/09 04:15:57;;;;;;;0.70;0.70;;;21.30;70.90;;;;;;5026488;28;20057;-77
2023/08/09 04:18:22;;;;;;;0.50;0.50;;;21.30;70.80;;;;;;5025210;28;20060;-76
2023/08/09 04:20:49;;;;;;;0.45;0.45;;;21.40;71.00;;;;;;5027055;28;20037;-77
2023/08/09 04:23:15;;;;;;;0.47;0.47;;;21.30;70.90;;;;;;5027178;28;20460;-77
2023/08/09 04:25:41;;;;;;;0.40;0.30;;;21.30;70.90;;;;;;5013799;28;20496;-76
2023/08/09 04:28:08;;;;;;;0.30;0.30;;;21.30;70.80;;;;;;5016759;28;20545;-77
2023/08/09 04:30:35;;;;;;;0.50;0.50;;;21.30;70.90;;;;;;5023928;28;20099;-76
2023/08/09 04:33:03;;;;;;;0.35;0.30;;;21.30;71.00;;;;;;5025115;28;20241;-76
2023/08/09 04:35:29;;;;;;;0.70;0.65;;;21.30;71.80;;;;;;5007638;28;20502;-76
2023/08/09 04:37:55;;;;;;;0.68;0.65;;;21.30;71.10;;;;;;5023169;28;20450;-76
2023/08/09 04:40:21;;;;;;;0.63;0.45;;;21.30;71.20;;;;;;5025134;28;20038;-76
2023/08/09 04:42:47;;;;;;;1.13;0.47;;;21.30;70.90;;;;;;5008961;28;20038;-76
2023/08/09 04:45:13;;;;;;;0.47;0.47;;;21.30;71.10;;;;;;5025450;28;20053;-76
2023/08/09 04:47:38;;;;;;;0.50;0.50;;;21.30;72.20;;;;;;5028228;28;20075;-76
2023/08/09 04:50:05;;;;;;;0.50;0.50;;;21.30;71.40;;;;;;5022121;28;20535;-76
2023/08/09 04:52:32;;;;;;;0.50;0.50;;;21.30;71.60;;;;;;5026480;28;20140;-77
2023/08/09 04:54:58;;;;;;;1.25;0.40;;;21.30;71.50;;;;;;5024605;28;20067;-76
2023/08/09 04:57:23;;;;;;;0.40;0.40;;;21.30;71.40;;;;;;5026525;28;20045;-77
2023/08/09 04:59:49;;;;;;;1.08;0.50;;;21.30;71.70;;;;;;5022556;28;20494;-77
2023/08/09 05:02:14;;;;;;;0.80;0.60;;;21.30;71.20;;;;;;5025149;28;20533;-77
2023/08/09 05:04:40;;;;;;;0.50;0.50;;;21.30;71.00;;;;;;5025482;28;20064;-76
2023/08/09 05:07:06;;;;;;;0.57;0.50;;;21.30;71.20;;;;;;5023933;28;20069;-77
2023/08/09 05:09:31;;;;;;;0.40;0.40;;;21.30;71.20;;;;;;5021219;28;20045;-76
2023/08/09 05:11:58;;;;;;;0.50;0.50;;;21.30;71.70;;;;;;5025949;28;20099;-76
2023/08/09 05:14:26;;;;;;;0.40;0.40;;;21.30;71.60;;;;;;5025818;28;20038;-76
2023/08/09 05:16:53;;;;;;;0.50;0.50;;;21.30;71.30;;;;;;5025671;28;20050;-76
2023/08/09 05:19:19;;;;;;;0.57;0.52;;;21.30;71.30;;;;;;5026586;28;20045;-76
2023/08/09 05:21:44;;;;;;;0.70;0.70;;;21.30;71.30;;;;;;5025660;28;20119;-76
2023/08/09 05:24:10;;;;;;;0.40;0.40;;;21.30;71.70;;;;;;5024522;28;20059;-77
2023/08/09 05:26:36;;;;;;;0.40;0.40;;;21.30;70.90;;;;;;5028395;28;20076;-76
2023/08/09 05:29:02;;;;;;;1.45;0.70;;;21.40;70.60;;;;;;5024029;28;20045;-76
2023/08/09 05:31:27;;;;;;;0.60;0.60;;;21.30;71.00;;;;;;5018764;28;20092;-76
2023/08/09 05:33:53;;;;;;;0.65;0.65;;;21.10;71.60;;;;;;5017962;28;20053;-76
2023/08/09 05:36:19;;;;;;;1.02;0.93;;;21.00;72.10;;;;;;5021941;28;20068;-76
2023/08/09 05:38:44;;;;;;;0.60;0.60;;;20.90;72.30;;;;;;5019903;28;20046;-76
2023/08/09 05:41:10;;;;;;;1.00;0.90;;;20.80;72.60;;;;;;5018761;28;20046;-76
2023/08/09 05:43:35;;;;;;;1.15;0.98;;;20.80;72.80;;;;;;5021024;28;20049;-76
2023/08/09 05:46:02;;;;;;;1.50;0.90;;;20.80;73.00;;;;;;5021975;28;20091;-76
2023/08/09 05:48:27;;;;;;;1.13;1.00;;;20.80;73.20;;;;;;4675052;28;10000572;-76
2023/08/09 05:50:53;;;;;;;0.70;0.70;;;20.70;73.30;;;;;;5025060;28;20041;-76
2023/08/09 05:53:19;;;;;;;1.05;0.82;;;20.70;73.60;;;;;;5021522;28;20053;-76
2023/08/09 05:55:44;;;;;;;1.10;0.80;;;20.70;73.60;;;;;;4985151;28;20547;-75
2023/08/09 05:58:10;;;;;;;1.00;0.90;;;20.60;73.80;;;;;;5016111;28;20655;-75
2023/08/09 06:00:37;;;;;;;0.85;0.80;;;20.60;74.00;;;;;;5021978;28;20041;-74
2023/08/09 06:03:03;;;;;;;0.75;0.75;;;20.60;74.20;;;;;;5023228;28;20184;-75
2023/08/09 06:05:28;;;;;;;1.38;1.10;;;20.60;74.10;;;;;;5023404;28;20120;-74
2023/08/09 06:07:55;;;;;;;1.45;1.00;;;20.60;74.20;;;;;;5002943;28;20041;-74
2023/08/09 06:10:20;;;;;;;2.03;1.08;;;20.60;74.40;;;;;;5003846;28;20060;-75
2023/08/09 06:12:46;;;;;;;1.50;1.05;;;20.60;74.20;;;;;;5020424;28;20462;-75
2023/08/09 06:15:12;;;;;;;0.93;0.93;;;20.60;74.30;;;;;;5018624;28;20057;-75
2023/08/09 06:17:38;;;;;;;0.98;0.80;;;20.70;74.20;;;;;;5020866;28;20077;-75
2023/08/09 06:20:07;;;;;;;1.65;1.33;;;20.80;74.00;;;;;;5018981;28;20061;-75
2023/08/09 06:22:32;;;;;;;1.70;1.48;;;20.70;74.20;;;;;;5005426;28;20503;-75
2023/08/09 06:24:58;;;;;;;1.88;1.20;;;20.60;74.50;;;;;;5004163;28;20036;-76
2023/08/09 06:27:23;;;;;;;1.65;1.15;;;20.70;74.50;;;;;;5050457;28;20056;-76
2023/08/09 06:29:49;;;;;;;1.67;1.10;;;20.80;74.60;;;;;;4996894;28;20119;-76
2023/08/09 06:32:14;;;;;;;0.77;0.77;;;20.70;74.60;;;;;;5017957;28;20190;-77
2023/08/09 06:34:40;;;;;;;2.10;1.40;;;20.80;74.60;;;;;;5019444;28;20041;-77
2023/08/09 06:37:06;;;;;;;1.85;1.40;;;20.80;74.60;;;;;;5020719;28;20034;-78
2023/08/09 06:39:33;;;;;;;2.80;1.10;;;20.80;75.30;;;;;;5018243;28;20048;-77
2023/08/09 06:41:59;;;;;;;1.50;1.40;;;20.70;76.20;;;;;;5020047;28;20083;-76
2023/08/09 06:44:25;;;;;;;2.17;1.35;;;20.80;75.90;;;;;;5022224;28;20053;-76
2023/08/09 06:46:51;;;;;;;1.30;1.20;;;20.70;75.70;;;;;;5021367;28;20121;-76
2023/08/09 06:49:17;;;;;;;1.77;1.10;;;20.80;75.40;;;;;;5016038;28;20280;-76
2023/08/09 06:51:43;;;;;;;1.40;1.30;;;20.80;75.40;;;;;;5021851;28;20416;-75
2023/08/09 06:54:08;;;;;;;1.30;1.20;;;20.70;75.50;;;;;;5020125;28;20061;-76
2023/08/09 06:56:35;;;;;;;1.65;1.30;;;20.70;75.50;;;;;;5006159;28;20096;-75
2023/08/09 06:59:01;;;;;;;1.20;1.10;;;20.70;76.00;;;;;;4998876;28;20048;-75
2023/08/09 07:01:26;;;;;;;0.90;0.80;;;20.70;76.30;;;;;;5006537;28;20045;-75
2023/08/09 07:03:53;;;;;;;1.20;1.10;;;20.70;76.30;;;;;;5023552;28;20121;-78
2023/08/09 07:06:18;;;;;;;2.65;1.30;;;20.70;76.20;;;;;;5024787;28;20034;-78
2023/08/09 07:08:44;;;;;;;1.33;1.00;;;20.90;76.10;;;;;;5023943;28;20041;-78
2023/08/09 07:11:09;;;;;;;0.93;0.80;;;20.80;76.00;;;;;;5015916;28;20507;-78
2023/08/09 07:13:35;;;;;;;1.08;0.90;;;20.80;75.80;;;;;;5028626;28;20049;-78
2023/08/09 07:16:01;;;;;;;0.90;0.90;;;20.80;75.90;;;;;;5029310;28;20043;-77
2023/08/09 07:18:26;;;;;;;0.82;0.82;;;20.90;75.60;;;;;;5030015;28;20498;-78
2023/08/09 07:20:52;;;;;;;1.23;0.70;;;20.90;75.40;;;;;;5027318;28;20132;-77
2023/08/09 07:23:19;;;;;;;5.78;1.25;;;20.90;75.20;;;;;;5029236;28;20057;-78
2023/08/09 07:25:45;;;;;;;1.25;0.77;;;20.90;74.80;;;;;;5027998;28;20115;-78
2023/08/09 07:28:11;;;;;;;0.70;0.70;;;21.00;74.90;;;;;;5028887;28;20506;-78
2023/08/09 07:30:37;;;;;;;1.13;0.80;;;20.90;74.50;;;;;;5030748;28;20048;-78
2023/08/09 07:33:02;;;;;;;0.88;0.88;;;21.00;74.40;;;;;;5030437;28;20031;-78
2023/08/09 07:35:28;;;;;;;0.75;0.75;;;21.00;74.40;;;;;;5031349;28;20041;-78
2023/08/09 07:37:55;;;;;;;0.70;0.70;;;21.00;74.30;;;;;;5028389;28;20050;-77
2023/08/09 07:40:20;;;;;;;0.60;0.60;;;21.00;74.20;;;;;;5028626;28;20106;-78
2023/08/09 07:42:46;;;;;;;0.95;0.70;;;21.00;74.20;;;;;;5027277;28;20453;-78
2023/08/09 07:45:12;;;;;;;1.20;0.80;;;21.00;74.10;;;;;;5008572;28;20057;-78
2023/08/09 07:47:38;;;;;;;0.85;0.63;;;21.00;74.10;;;;;;5012152;28;20030;-78
2023/08/09 07:50:05;;;;;;;0.60;0.60;;;21.00;74.10;;;;;;5027044;28;20132;-78
2023/08/09 07:52:32;;;;;;;0.55;0.50;;;21.00;74.00;;;;;;5027080;28;20048;-78
2023/08/09 07:54:58;;;;;;;0.73;0.60;;;21.10;74.00;;;;;;5026916;28;20129;-78
2023/08/09 07:57:24;;;;;;;0.98;0.90;;;21.10;74.00;;;;;;5030319;28;20057;-78
2023/08/09 07:59:50;;;;;;;0.93;0.60;;;21.00;74.60;;;;;;5028502;28;20054;-78
2023/08/09 08:02:16;;;;;;;1.00;1.00;;;21.00;73.80;;;;;;4993268;28;20033;-78
2023/08/09 08:04:41;;;;;;;0.70;0.70;;;21.10;73.80;;;;;;5029774;28;20462;-78
2023/08/09 08:07:09;;;;;;;0.80;0.80;;;21.00;73.90;;;;;;5028626;28;20037;-78
2023/08/09 08:09:35;;;;;;;0.93;0.73;;;21.10;74.10;;;;;;5029454;28;20045;-78
2023/08/09 08:12:01;;;;;;;0.70;0.70;;;21.10;74.00;;;;;;5026827;28;21618;-78
2023/08/09 08:14:26;;;;;;;0.70;0.70;;;21.10;74.00;;;;;;5029392;28;20580;-78
2023/08/09 08:16:52;;;;;;;0.65;0.65;;;21.10;73.80;;;;;;5029387;28;20457;-78
2023/08/09 08:19:18;;;;;;;0.85;0.80;;;21.10;73.80;;;;;;5026325;28;20022;-78
2023/08/09 08:21:44;;;;;;;0.68;0.68;;;21.10;73.80;;;;;;5028536;28;20119;-78
2023/08/09 08:24:11;;;;;;;0.60;0.60;;;21.10;73.70;;;;;;5009126;28;20471;-77
2023/08/09 08:26:36;;;;;;;0.68;0.60;;;21.10;73.80;;;;;;5028436;28;20041;-78
2023/08/09 08:29:02;;;;;;;0.70;0.70;;;21.10;73.80;;;;;;5027229;28;20046;-78
2023/08/09 08:31:28;;;;;;;0.70;0.70;;;21.20;74.50;;;;;;5013807;28;20132;-78
2023/08/09 08:33:54;;;;;;;1.40;0.60;;;21.10;73.50;;;;;;5018541;28;20550;-78
2023/08/09 08:36:20;;;;;;;0.85;0.55;;;21.20;73.60;;;;;;5025734;28;20042;-78
2023/08/09 08:38:46;;;;;;;0.60;0.60;;;21.20;73.50;;;;;;5012693;28;20449;-78
2023/08/09 08:41:11;;;;;;;1.02;0.60;;;21.20;73.00;;;;;;5027288;28;20049;-78
2023/08/09 08:43:37;;;;;;;0.50;0.50;;;21.20;73.00;;;;;;5028628;28;20042;-78
2023/08/09 08:46:04;;;;;;;0.60;0.60;;;21.20;73.00;;;;;;5027031;28;20550;-78
2023/08/09 08:48:32;;;;;;;0.60;0.60;;;21.20;73.10;;;;;;5026276;28;20069;-78
2023/08/09 08:50:57;;;;;;;0.80;0.73;;;21.20;73.00;;;;;;5027895;28;20037;-77
2023/08/09 08:53:23;;;;;;;0.70;0.70;;;21.20;73.20;;;;;;5025983;28;20041;-78
2023/08/09 08:55:49;;;;;;;1.00;0.75;;;21.20;73.20;;;;;;5023912;28;20065;-78
2023/08/09 08:58:14;;;;;;;0.55;0.55;;;21.20;73.20;;;;;;5027307;28;20329;-78
2023/08/09 09:00:40;;;;;;;0.57;0.52;;;21.20;73.20;;;;;;5028001;28;20129;-78
2023/08/09 09:03:06;;;;;;;0.60;0.60;;;21.20;73.20;;;;;;5027330;28;20057;-78
2023/08/09 09:05:32;;;;;;;0.75;0.75;;;21.20;73.10;;;;;;5027587;28;20418;-78
2023/08/09 09:07:57;;;;;;;0.60;0.60;;;21.20;73.20;;;;;;5013288;28;20040;-77
2023/08/09 09:10:23;;;;;;;1.73;0.70;;;21.30;73.20;;;;;;5016386;28;20053;-78
2023/08/09 09:12:50;;;;;;;0.60;0.60;;;21.30;73.20;;;;;;5023992;28;20045;-78
2023/08/09 09:15:16;;;;;;;0.47;0.47;;;21.30;73.70;;;;;;5024993;28;20072;-78
2023/08/09 09:17:42;;;;;;;0.55;0.55;;;21.30;73.80;;;;;;5025646;28;20482;-77
2023/08/09 09:20:23;;;;;;;0.32;0.32;;;21.30;74.00;;;;;;5023090;28;20043;-77
2023/08/09 09:22:49;;;;;;;0.45;0.45;;;21.40;74.10;;;;;;5023117;28;20042;-77
2023/08/09 09:25:15;;;;;;;1.37;0.93;;;21.40;74.10;;;;;;4670951;28;10000283;-76
2023/08/09 09:27:40;;;;;;;1.05;0.52;;;21.40;73.90;;;;;;5021814;28;20045;-76
2023/08/09 09:30:19;;;;;;;0.70;0.70;;;21.40;73.40;;;;;;5017950;28;20111;-76
2023/08/09 09:32:56;;;;;;;1.27;0.80;;;21.40;73.40;;;;;;5018240;28;20662;-77
2023/08/09 09:35:23;;;;;;;0.68;0.68;;;21.40;73.40;;;;;;5017645;28;20061;-77
2023/08/09 09:37:50;;;;;;;1.58;0.77;;;21.40;73.50;;;;;;5003143;28;20049;-76
2023/08/09 09:40:22;;;;;;;1.05;0.50;;;21.40;73.50;;;;;;5003472;28;20421;-77
2023/08/09 09:42:50;;;;;;;0.80;0.80;;;21.40;73.70;;;;;;5020931;28;20041;-76
2023/08/09 09:45:15;;;;;;;0.60;0.50;;;21.40;73.60;;;;;;5002854;28;20574;-76
2023/08/09 09:47:41;;;;;;;1.25;0.70;;;21.40;73.70;;;;;;5021227;28;20049;-77
2023/08/09 09:50:08;;;;;;;1.10;1.00;;;21.40;73.70;;;;;;5018313;28;20087;-76
2023/08/09 09:52:36;;;;;;;1.95;0.60;;;21.40;73.60;;;;;;5020065;28;20042;-77
2023/08/09 09:55:03;;;;;;;1.65;0.68;;;21.40;73.60;;;;;;5017359;28;20091;-76
2023/08/09 09:57:29;;;;;;;0.55;0.55;;;21.40;73.60;;;;;;5019212;28;20050;-77
2023/08/09 09:59:58;;;;;;;0.52;0.52;;;21.50;73.60;;;;;;5000788;28;20042;-77
2023/08/09 10:02:25;;;;;;;0.50;0.50;;;21.50;73.60;;;;;;5021455;28;20061;-76
2023/08/09 10:04:50;;;;;;;0.45;0.45;;;21.50;73.60;;;;;;5019727;28;20677;-76
2023/08/09 10:07:16;;;;;;;0.60;0.60;;;21.50;73.60;;;;;;5004655;28;20041;-76
2023/08/09 10:09:42;;;;;;;0.65;0.65;;;21.50;73.60;;;;;;4986590;28;20041;-75
2023/08/09 10:12:07;;;;;;;0.40;0.40;;;21.50;73.60;;;;;;5002798;28;20128;-76
2023/08/09 10:14:33;;;;;;;0.70;0.70;;;21.50;73.50;;;;;;5021112;28;20053;-77
2023/08/09 10:16:59;;;;;;;0.57;0.57;;;21.60;73.40;;;;;;5005484;28;20065;-78
2023/08/09 10:19:24;;;;;;;0.70;0.70;;;21.60;73.50;;;;;;4984693;28;20388;-77
2023/08/09 10:21:53;;;;;;;0.60;0.60;;;21.60;73.50;;;;;;5004178;28;20077;-77
2023/08/09 10:24:18;;;;;;;0.90;0.63;;;21.60;73.60;;;;;;4999458;28;20045;-77
2023/08/09 10:26:46;;;;;;;0.50;0.50;;;21.60;73.60;;;;;;5051349;28;20045;-77
2023/08/09 10:29:13;;;;;;;1.15;0.55;;;21.60;73.50;;;;;;4984517;28;20038;-76
2023/08/09 10:31:53;;;;;;;0.52;0.52;;;21.60;73.50;;;;;;5019595;28;20618;-75
2023/08/09 10:34:37;;;;;;;0.40;0.40;;;21.60;73.40;;;;;;5017295;28;20041;-76
2023/08/09 10:37:04;;;;;;;1.48;0.60;;;21.60;73.50;;;;;;5017418;28;20080;-77
2023/08/09 10:39:30;;;;;;;0.70;0.70;;;21.70;73.60;;;;;;5018353;28;20495;-77
2023/08/09 10:41:56;;;;;;;0.60;0.60;;;21.70;73.60;;;;;;5019740;28;20045;-77
2023/08/09 10:44:35;;;;;;;0.55;0.55;;;21.70;73.50;;;;;;5017995;28;20417;-77
2023/08/09 10:47:06;;;;;;;0.50;0.50;;;21.60;73.50;;;;;;5013414;28;20041;-77
2023/08/09 10:49:55;;;;;;;1.27;1.08;;;21.60;73.60;;;;;;5015951;28;20156;-77
2023/08/09 10:52:51;;;;;;;0.73;0.50;;;21.70;73.60;;;;;;5016377;28;20083;-76
2023/08/09 10:55:24;;;;;;;0.55;0.55;;;21.70;73.60;;;;;;5028532;28;20037;-75
2023/08/09 10:57:50;;;;;;;3.58;0.70;;;21.70;73.50;;;;;;5019815;28;20401;-76
2023/08/09 11:00:16;;;;;;;0.40;0.40;;;21.70;73.50;;;;;;5004234;28;20188;-75
2023/08/09 11:02:52;;;;;;;0.80;0.80;;;21.70;73.60;;;;;;5020128;28;20148;-75
2023/08/09 11:05:18;;;;;;;0.52;0.52;;;21.70;73.60;;;;;;5020112;28;20045;-75
2023/08/09 11:07:49;;;;;;;0.57;0.57;;;21.70;73.60;;;;;;5018345;28;20243;-75
2023/08/09 11:10:17;;;;;;;0.45;0.45;;;21.70;73.60;;;;;;5018814;28;20563;-76
2023/08/09 11:12:43;;;;;;;0.68;0.50;;;21.70;73.60;;;;;;5001278;28;20107;-76
2023/08/09 11:15:09;;;;;;;0.80;0.75;;;21.70;73.70;;;;;;5019043;28;20053;-76
2023/08/09 11:17:37;;;;;;;0.40;0.40;;;21.70;73.40;;;;;;5019602;28;20130;-76
2023/08/09 11:20:11;;;;;;;0.43;0.43;;;21.80;73.50;;;;;;5017865;28;20056;-76
2023/08/09 11:22:38;;;;;;;0.30;0.30;;;21.70;73.40;;;;;;5011845;28;20045;-75
2023/08/09 11:25:06;;;;;;;0.70;0.70;;;21.70;73.50;;;;;;5019336;28;20052;-77
2023/08/09 11:27:32;;;;;;;0.50;0.50;;;21.80;73.60;;;;;;4985254;28;20053;-76
2023/08/09 11:29:57;;;;;;;0.40;0.40;;;21.80;73.70;;;;;;5001753;28;20435;-76
2023/08/09 11:32:27;;;;;;;0.40;0.40;;;21.70;73.60;;;;;;5019232;28;20129;-77
2023/08/09 11:34:53;;;;;;;0.40;0.40;;;21.80;73.60;;;;;;5017065;28;20068;-76
2023/08/09 11:37:19;;;;;;;0.52;0.52;;;21.80;73.60;;;;;;5018615;28;20046;-76
2023/08/09 11:39:44;;;;;;;1.17;0.73;;;21.80;73.70;;;;;;5018790;28;20846;-76
2023/08/09 11:42:10;;;;;;;2.88;0.50;;;21.80;73.60;;;;;;5003048;28;20072;-76
2023/08/09 11:44:36;;;;;;;0.52;0.40;;;21.80;73.60;;;;;;5000429;28;20508;-76
2023/08/09 11:47:03;;;;;;;0.35;0.35;;;21.80;73.60;;;;;;5018252;28;20037;-76
2023/08/09 11:49:30;;;;;;;0.50;0.50;;;21.80;73.60;;;;;;5018113;28;20107;-76
2023/08/09 11:51:55;;;;;;;0.38;0.38;;;21.80;73.60;;;;;;5006055;28;20396;-77
2023/08/09 11:54:21;;;;;;;1.38;0.30;;;21.80;73.70;;;;;;5005188;28;21044;-76
2023/08/09 11:56:47;;;;;;;1.30;0.50;;;21.80;73.70;;;;;;5023134;28;20523;-76
2023/08/09 11:59:15;;;;;;;0.40;0.40;;;21.80;73.70;;;;;;5023037;28;20049;-76
2023/08/09 12:01:44;;;;;;;0.40;0.40;;;21.80;73.70;;;;;;5021995;28;20033;-76
2023/08/09 12:04:13;;;;;;;0.45;0.45;;;21.80;73.70;;;;;;5048865;28;20041;-75
2023/08/09 12:06:42;;;;;;;0.57;0.52;;;21.80;74.50;;;;;;5022054;28;20069;-79
2023/08/09 12:09:35;;;;;;;0.40;0.40;;;21.80;73.70;;;;;;5005897;28;20042;-76
2023/08/09 12:12:37;;;;;;;0.38;0.38;;;21.90;74.10;;;;;;5020446;28;20534;-76
2023/08/09 12:15:04;;;;;;;0.50;0.40;;;21.80;73.80;;;;;;5022069;28;20037;-76
2023/08/09 12:17:29;;;;;;;0.65;0.50;;;21.80;73.70;;;;;;5021061;28;20045;-76
2023/08/09 12:20:00;;;;;;;0.35;0.35;;;21.90;73.70;;;;;;5020990;28;20568;-76
2023/08/09 12:22:26;;;;;;;0.52;0.47;;;21.90;73.70;;;;;;5004508;28;20088;-76
2023/08/09 12:24:52;;;;;;;0.30;0.30;;;21.90;73.70;;;;;;5020804;28;20575;-76
2023/08/09 12:27:19;;;;;;;0.40;0.40;;;21.90;73.70;;;;;;5004675;28;20662;-76
2023/08/09 12:29:45;;;;;;;0.30;0.30;;;21.90;73.70;;;;;;5004290;28;20053;-76
2023/08/09 12:32:11;;;;;;;0.40;0.40;;;21.90;73.70;;;;;;5020710;28;20091;-76
2023/08/09 12:34:37;;;;;;;0.30;0.30;;;22.00;73.80;;;;;;5022425;28;20049;-77
2023/08/09 12:37:02;;;;;;;1.17;0.40;;;21.90;73.70;;;;;;5020228;28;20037;-77
2023/08/09 12:39:28;;;;;;;0.40;0.40;;;21.90;73.80;;;;;;5002691;28;20415;-76
2023/08/09 12:41:53;;;;;;;0.90;0.50;;;21.90;73.80;;;;;;5032842;28;20041;-77
2023/08/09 12:44:19;;;;;;;0.30;0.30;;;21.90;73.80;;;;;;5028473;28;20079;-76
2023/08/09 12:46:45;;;;;;;0.40;0.40;;;21.90;73.90;;;;;;5028979;28;20050;-77